createdAt,value
2022-11-24T00:00:05.525Z,993
2022-11-24T00:03:06.151Z,993
2022-11-24T00:06:05.431Z,993
2022-11-24T00:09:05.366Z,993
2022-11-24T00:12:05.515Z,993
2022-11-24T00:15:05.340Z,993
2022-11-24T00:18:05.369Z,993
2022-11-24T00:21:05.491Z,993
2022-11-24T00:24:05.456Z,993
2022-11-24T00:27:05.354Z,993
2022-11-24T00:30:05.477Z,993
2022-11-24T00:33:05.343Z,993
2022-11-24T00:36:05.518Z,993
2022-11-24T00:39:05.442Z,993
2022-11-24T00:42:05.412Z,993
2022-11-24T00:45:18.034Z,993
2022-11-24T00:48:05.392Z,993
2022-11-24T00:51:05.394Z,993
2022-11-24T00:54:05.392Z,993
2022-11-24T00:57:05.358Z,993
2022-11-24T01:00:05.406Z,993
2022-11-24T01:03:05.791Z,993
2022-11-24T01:06:05.377Z,993
2022-11-24T01:09:05.365Z,993
2022-11-24T01:12:05.425Z,993
2022-11-24T01:15:05.410Z,993
2022-11-24T01:18:05.437Z,993
2022-11-24T01:21:12.666Z,993
2022-11-24T01:24:05.429Z,993
2022-11-24T01:27:05.341Z,993
2022-11-24T01:30:05.351Z,993
2022-11-24T01:33:05.379Z,993
2022-11-24T01:36:05.442Z,993
2022-11-24T01:39:05.433Z,993
2022-11-24T01:42:05.413Z,994
2022-11-24T01:45:05.337Z,994
2022-11-24T01:48:05.713Z,994
2022-11-24T01:51:05.331Z,994
2022-11-24T01:54:05.409Z,994
2022-11-24T01:57:05.449Z,994
2022-11-24T02:00:05.430Z,994
2022-11-24T02:03:05.701Z,994
2022-11-24T02:06:05.380Z,994
2022-11-24T02:09:05.404Z,994
2022-11-24T02:12:05.400Z,994
2022-11-24T02:15:05.353Z,994
2022-11-24T02:18:05.472Z,994
2022-11-24T02:21:05.398Z,994
2022-11-24T02:24:05.341Z,994
2022-11-24T02:27:05.364Z,994
2022-11-24T02:30:05.377Z,994
2022-11-24T02:33:05.451Z,994
2022-11-24T02:36:05.394Z,994
2022-11-24T02:39:05.349Z,994
2022-11-24T02:42:05.395Z,994
2022-11-24T02:45:05.446Z,994
2022-11-24T02:48:05.470Z,994
2022-11-24T02:51:05.362Z,994
2022-11-24T02:54:05.433Z,994
2022-11-24T02:57:05.383Z,994
2022-11-24T03:00:05.435Z,994
2022-11-24T03:03:05.710Z,994
2022-11-24T03:06:05.526Z,994
2022-11-24T03:09:05.419Z,994
2022-11-24T03:12:05.715Z,994
2022-11-24T03:15:05.550Z,994
2022-11-24T03:18:05.359Z,994
2022-11-24T03:21:05.390Z,994
2022-11-24T03:24:05.400Z,994
2022-11-24T03:27:05.376Z,994
2022-11-24T03:30:05.447Z,994
2022-11-24T03:33:05.327Z,994
2022-11-24T03:36:05.365Z,994
2022-11-24T03:39:05.359Z,995
2022-11-24T03:42:05.328Z,995
2022-11-24T03:45:49.416Z,994
2022-11-24T03:48:05.345Z,994
2022-11-24T03:51:05.417Z,994
2022-11-24T03:54:05.339Z,994
2022-11-24T03:57:05.332Z,994
2022-11-24T04:00:05.350Z,994
2022-11-24T04:03:05.723Z,994
2022-11-24T04:06:05.481Z,994
2022-11-24T04:09:05.331Z,994
2022-11-24T04:12:05.358Z,994
2022-11-24T04:15:05.335Z,994
2022-11-24T04:18:05.613Z,994
2022-11-24T04:21:05.368Z,994
2022-11-24T04:24:05.465Z,994
2022-11-24T04:27:05.329Z,994
2022-11-24T04:30:05.424Z,994
2022-11-24T04:33:05.327Z,994
2022-11-24T04:36:05.333Z,995
2022-11-24T04:39:31.322Z,995
2022-11-24T04:42:05.308Z,995
2022-11-24T04:45:05.391Z,995
2022-11-24T04:48:05.309Z,995
2022-11-24T04:51:05.409Z,995
2022-11-24T04:54:05.359Z,995
2022-11-24T04:57:05.310Z,995
2022-11-24T05:00:05.440Z,995
2022-11-24T05:03:05.481Z,995
2022-11-24T05:06:05.416Z,995
2022-11-24T05:09:05.111Z,995
2022-11-24T05:12:05.167Z,995
2022-11-24T05:15:05.156Z,995
2022-11-24T05:18:05.141Z,995
2022-11-24T05:21:05.120Z,995
2022-11-24T05:24:05.163Z,995
2022-11-24T05:27:05.217Z,995
2022-11-24T05:30:05.157Z,996
2022-11-24T05:33:05.180Z,996
2022-11-24T05:36:05.168Z,996
2022-11-24T05:39:05.271Z,996
2022-11-24T05:42:05.110Z,996
2022-11-24T05:45:05.234Z,995
2022-11-24T05:48:05.086Z,995
2022-11-24T05:51:13.366Z,995
2022-11-24T05:54:05.206Z,995
2022-11-24T05:57:05.088Z,995
2022-11-24T06:00:05.226Z,995
2022-11-24T06:03:05.754Z,995
2022-11-24T06:06:05.189Z,995
2022-11-24T06:09:05.142Z,995
2022-11-24T06:12:05.230Z,995
2022-11-24T06:15:05.198Z,995
2022-11-24T06:18:05.164Z,995
2022-11-24T06:21:16.361Z,995
2022-11-24T06:24:05.168Z,996
2022-11-24T06:27:05.089Z,996
2022-11-24T06:30:05.184Z,996
2022-11-24T06:33:05.203Z,996
2022-11-24T06:36:05.170Z,996
2022-11-24T06:39:05.167Z,996
2022-11-24T06:42:05.091Z,996
2022-11-24T06:45:10.912Z,996
2022-11-24T06:48:05.122Z,996
2022-11-24T06:51:05.140Z,996
2022-11-24T06:54:05.196Z,996
2022-11-24T06:57:05.875Z,996
2022-11-24T07:00:05.299Z,996
2022-11-24T07:03:05.488Z,996
2022-11-24T07:06:05.403Z,996
2022-11-24T07:09:05.209Z,996
2022-11-24T07:12:05.189Z,996
2022-11-24T07:15:05.161Z,996
2022-11-24T07:18:05.277Z,996
2022-11-24T07:21:05.215Z,996
2022-11-24T07:24:05.243Z,996
2022-11-24T07:27:05.218Z,996
2022-11-24T07:30:05.277Z,996
2022-11-24T07:33:05.154Z,996
2022-11-24T07:36:05.155Z,996
2022-11-24T07:39:05.286Z,996
2022-11-24T07:42:05.242Z,996
2022-11-24T07:45:05.289Z,996
2022-11-24T07:48:05.158Z,996
2022-11-24T07:51:05.232Z,996
2022-11-24T07:54:05.278Z,996
2022-11-24T07:57:05.208Z,996
2022-11-24T08:00:05.258Z,996
2022-11-24T08:03:05.261Z,996
2022-11-24T08:06:45.992Z,996
2022-11-24T08:09:05.230Z,996
2022-11-24T08:12:05.451Z,997
2022-11-24T08:15:11.696Z,997
2022-11-24T08:18:05.192Z,997
2022-11-24T08:21:05.206Z,997
2022-11-24T08:24:05.169Z,997
2022-11-24T08:27:05.326Z,997
2022-11-24T08:30:05.367Z,997
2022-11-24T08:33:05.200Z,997
2022-11-24T08:36:05.243Z,997
2022-11-24T08:39:05.200Z,997
2022-11-24T08:42:05.239Z,997
2022-11-24T08:45:29.543Z,997
2022-11-24T08:48:05.271Z,997
2022-11-24T08:51:05.192Z,997
2022-11-24T08:54:05.207Z,997
2022-11-24T08:57:05.198Z,997
2022-11-24T09:00:05.292Z,997
2022-11-24T09:03:05.177Z,997
2022-11-24T09:06:05.227Z,998
2022-11-24T09:09:05.164Z,998
2022-11-24T09:12:08.649Z,998
2022-11-24T09:15:05.176Z,998
2022-11-24T09:18:05.226Z,997
2022-11-24T09:21:05.041Z,997
2022-11-24T09:24:05.274Z,997
2022-11-24T09:27:05.252Z,997
2022-11-24T09:30:05.352Z,997
2022-11-24T09:33:05.163Z,997
2022-11-24T09:36:05.276Z,997
2022-11-24T09:39:05.414Z,997
2022-11-24T09:42:05.327Z,997
2022-11-24T09:45:05.249Z,997
2022-11-24T09:48:05.277Z,997
2022-11-24T09:51:05.315Z,997
2022-11-24T09:54:05.345Z,997
2022-11-24T09:57:05.312Z,997
2022-11-24T10:00:05.272Z,998
2022-11-24T10:03:05.217Z,998
2022-11-24T10:06:05.258Z,998
2022-11-24T10:09:05.195Z,998
2022-11-24T10:12:05.198Z,998
2022-11-24T10:15:05.315Z,998
2022-11-24T10:18:05.161Z,998
2022-11-24T10:21:05.227Z,998
2022-11-24T10:24:05.290Z,998
2022-11-24T10:27:05.256Z,998
2022-11-24T10:30:05.237Z,998
2022-11-24T10:33:05.267Z,998
2022-11-24T10:36:05.315Z,998
2022-11-24T10:39:05.228Z,998
2022-11-24T10:42:05.228Z,998
2022-11-24T10:45:05.200Z,998
2022-11-24T10:48:05.230Z,998
2022-11-24T10:51:05.242Z,998
2022-11-24T10:54:05.141Z,998
2022-11-24T10:57:05.284Z,998
2022-11-24T11:00:05.273Z,998
2022-11-24T11:03:05.532Z,998
2022-11-24T11:06:05.257Z,998
2022-11-24T11:09:05.234Z,998
2022-11-24T11:12:47.742Z,998
2022-11-24T11:15:05.253Z,998
2022-11-24T11:18:05.222Z,998
2022-11-24T11:21:05.187Z,998
2022-11-24T11:24:05.293Z,998
2022-11-24T11:27:05.253Z,998
2022-11-24T11:36:05.256Z,998
2022-11-24T11:39:05.335Z,998
2022-11-24T11:42:05.169Z,998
2022-11-24T11:45:05.251Z,998
2022-11-24T11:48:05.233Z,998
2022-11-24T11:51:28.843Z,998
2022-11-24T11:54:05.662Z,998
2022-11-24T11:57:05.218Z,998
2022-11-24T12:00:05.518Z,998
2022-11-24T12:03:05.957Z,998
2022-11-24T12:06:05.224Z,998
2022-11-24T12:09:38.077Z,998
2022-11-24T12:12:05.329Z,998
2022-11-24T12:15:15.229Z,998
2022-11-24T12:18:05.318Z,998
2022-11-24T12:21:05.262Z,998
2022-11-24T12:24:05.266Z,998
2022-11-24T12:27:05.298Z,998
2022-11-24T12:30:05.358Z,998
2022-11-24T12:33:05.253Z,998
2022-11-24T12:36:05.314Z,998
2022-11-24T12:39:05.203Z,998
2022-11-24T12:42:05.268Z,998
2022-11-24T12:45:05.246Z,998
2022-11-24T12:48:05.265Z,999
2022-11-24T12:51:05.198Z,999
2022-11-24T12:54:05.251Z,999
2022-11-24T12:57:05.255Z,999
2022-11-24T13:00:05.459Z,999
2022-11-24T13:03:06.120Z,999
2022-11-24T13:06:05.239Z,999
2022-11-24T13:09:05.312Z,999
2022-11-24T13:12:08.304Z,999
2022-11-24T13:15:05.302Z,999
2022-11-24T13:18:17.219Z,999
2022-11-24T13:21:05.306Z,998
2022-11-24T13:24:05.226Z,998
2022-11-24T13:27:05.235Z,998
2022-11-24T13:30:05.287Z,998
2022-11-24T13:33:05.249Z,998
2022-11-24T13:36:05.317Z,998
2022-11-24T13:39:05.169Z,998
2022-11-24T13:42:05.207Z,999
2022-11-24T13:45:05.193Z,999
2022-11-24T13:48:05.246Z,999
2022-11-24T13:51:05.203Z,999
2022-11-24T13:54:05.443Z,999
2022-11-24T13:57:05.235Z,999
2022-11-24T14:00:05.389Z,999
2022-11-24T14:03:05.509Z,999
2022-11-24T14:06:05.227Z,999
2022-11-24T14:09:05.236Z,999
2022-11-24T14:12:05.228Z,999
2022-11-24T14:15:05.417Z,999
2022-11-24T14:18:05.347Z,999
2022-11-24T14:21:05.209Z,999
2022-11-24T14:24:05.361Z,999
2022-11-24T14:27:05.239Z,999
2022-11-24T14:30:05.266Z,999
2022-11-24T14:33:05.351Z,999
2022-11-24T14:36:05.241Z,1000
2022-11-24T14:39:05.277Z,1000
2022-11-24T14:42:05.249Z,1000
2022-11-24T14:45:05.209Z,1000
2022-11-24T14:48:05.346Z,1000
2022-11-24T14:51:05.202Z,999
2022-11-24T14:54:05.234Z,999
2022-11-24T14:57:05.221Z,999
2022-11-24T15:00:05.283Z,999
2022-11-24T15:03:05.275Z,999
2022-11-24T15:06:05.330Z,999
2022-11-24T15:09:05.209Z,999
2022-11-24T15:12:05.379Z,999
2022-11-24T15:15:05.262Z,999
2022-11-24T15:18:05.237Z,1000
2022-11-24T15:21:05.208Z,1000
2022-11-24T15:24:05.182Z,1000
2022-11-24T15:27:05.168Z,1000
2022-11-24T15:30:05.168Z,1000
2022-11-24T15:33:05.159Z,1000
2022-11-24T15:36:05.266Z,1000
2022-11-24T15:39:05.137Z,1000
2022-11-24T15:42:05.182Z,1000
2022-11-24T15:45:05.205Z,1000
2022-11-24T15:48:05.304Z,1000
2022-11-24T15:51:05.148Z,1000
2022-11-24T15:54:06.116Z,1000
2022-11-24T15:57:05.122Z,1000
2022-11-24T16:00:05.275Z,1000
2022-11-24T16:03:51.628Z,1000
2022-11-24T16:06:05.825Z,1000
2022-11-24T16:09:05.215Z,1000
2022-11-24T16:12:05.187Z,1000
2022-11-24T16:15:05.202Z,1000
2022-11-24T16:18:05.145Z,1000
2022-11-24T16:21:05.157Z,1000
2022-11-24T16:24:05.239Z,1000
2022-11-24T16:27:05.255Z,1001
2022-11-24T16:30:05.162Z,1001
2022-11-24T16:33:05.177Z,1001
2022-11-24T16:36:05.183Z,1001
2022-11-24T16:39:05.179Z,1001
2022-11-24T16:42:05.187Z,1001
2022-11-24T16:45:05.253Z,1000
2022-11-24T16:48:05.205Z,1000
2022-11-24T16:51:05.163Z,1000
2022-11-24T16:54:05.187Z,1000
2022-11-24T16:57:07.101Z,1000
2022-11-24T17:00:05.327Z,1000
2022-11-24T17:03:05.149Z,1000
2022-11-24T17:06:05.121Z,1000
2022-11-24T17:09:05.237Z,1000
2022-11-24T17:12:05.163Z,1000
2022-11-24T17:15:51.086Z,1000
2022-11-24T17:18:30.071Z,1000
2022-11-24T17:21:14.228Z,1000
2022-11-24T17:24:05.184Z,1000
2022-11-24T17:27:05.134Z,1000
2022-11-24T17:30:05.171Z,1001
2022-11-24T17:33:05.167Z,1001
2022-11-24T17:36:05.227Z,1001
2022-11-24T17:39:05.423Z,1001
2022-11-24T17:42:05.263Z,1001
2022-11-24T17:45:05.185Z,1001
2022-11-24T17:48:05.269Z,1001
2022-11-24T17:51:05.182Z,1001
2022-11-24T17:54:49.070Z,1001
2022-11-24T17:57:05.080Z,1001
2022-11-24T18:00:05.212Z,1001
2022-11-24T18:03:05.145Z,1001
2022-11-24T18:06:05.274Z,1001
2022-11-24T18:09:05.177Z,1001
2022-11-24T18:12:05.172Z,1001
2022-11-24T18:15:05.200Z,1001
2022-11-24T18:18:05.188Z,1001
2022-11-24T18:21:05.178Z,1001
2022-11-24T18:24:05.165Z,1001
2022-11-24T18:27:05.270Z,1001
2022-11-24T18:30:05.319Z,1001
2022-11-24T18:33:05.146Z,1001
2022-11-24T18:36:05.212Z,1001
2022-11-24T18:39:05.233Z,1001
2022-11-24T18:42:05.162Z,1001
2022-11-24T18:45:05.207Z,1001
2022-11-24T18:48:05.242Z,1001
2022-11-24T18:51:05.196Z,1001
2022-11-24T18:54:05.198Z,1001
2022-11-24T18:57:08.252Z,1001
2022-11-24T19:00:05.191Z,1001
2022-11-24T19:03:05.173Z,1001
2022-11-24T19:06:05.197Z,1001
2022-11-24T19:09:05.243Z,1001
2022-11-24T19:12:07.795Z,1001
2022-11-24T19:15:05.171Z,1001
2022-11-24T19:18:05.144Z,1001
2022-11-24T19:21:05.175Z,1001
2022-11-24T19:24:10.430Z,1001
2022-11-24T19:27:05.138Z,1001
2022-11-24T19:30:05.296Z,1001
2022-11-24T19:33:05.140Z,1001
2022-11-24T19:36:05.209Z,1001
2022-11-24T19:39:05.465Z,1001
2022-11-24T19:42:05.224Z,1001
2022-11-24T19:45:05.188Z,1001
2022-11-24T19:48:05.215Z,1001
2022-11-24T19:51:05.172Z,1001
2022-11-24T19:54:05.211Z,1001
2022-11-24T19:57:05.208Z,1001
2022-11-24T20:00:05.163Z,1001
2022-11-24T20:03:05.331Z,1001
2022-11-24T20:06:05.202Z,1001
2022-11-24T20:09:05.216Z,1001
2022-11-24T20:12:05.154Z,1001
2022-11-24T20:15:05.175Z,1001
2022-11-24T20:18:05.130Z,1002
2022-11-24T20:21:05.201Z,1002
2022-11-24T20:24:05.203Z,1002
2022-11-24T20:27:05.197Z,1002
2022-11-24T20:30:05.366Z,1002
2022-11-24T20:33:05.179Z,1002
2022-11-24T20:36:05.201Z,1002
2022-11-24T20:39:05.033Z,1002
2022-11-24T20:42:05.160Z,1002
2022-11-24T20:45:05.121Z,1002
2022-11-24T20:48:05.217Z,1002
2022-11-24T20:51:05.180Z,1002
2022-11-24T20:54:05.209Z,1002
2022-11-24T20:57:05.178Z,1002
2022-11-24T21:00:05.266Z,1002
2022-11-24T21:03:05.214Z,1002
2022-11-24T21:06:05.172Z,1002
2022-11-24T21:09:08.734Z,1002
2022-11-24T21:12:05.164Z,1002
2022-11-24T21:15:05.118Z,1002
2022-11-24T21:18:05.273Z,1002
2022-11-24T21:21:05.136Z,1002
2022-11-24T21:24:05.237Z,1002
2022-11-24T21:27:05.188Z,1002
2022-11-24T21:30:05.248Z,1002
2022-11-24T21:33:05.131Z,1002
2022-11-24T21:36:05.215Z,1002
2022-11-24T21:39:05.620Z,1002
2022-11-24T21:42:05.174Z,1002
2022-11-24T21:45:05.184Z,1002
2022-11-24T21:48:05.173Z,1002
2022-11-24T21:51:05.169Z,1002
2022-11-24T21:54:05.213Z,1002
2022-11-24T21:57:05.105Z,1002
2022-11-24T22:00:05.142Z,1002
2022-11-24T22:03:05.211Z,1002
2022-11-24T22:06:05.148Z,1002
2022-11-24T22:09:05.192Z,1002
2022-11-24T22:12:05.144Z,1002
2022-11-24T22:15:05.192Z,1002
2022-11-24T22:18:05.168Z,1002
2022-11-24T22:21:05.162Z,1002
2022-11-24T22:24:05.146Z,1002
2022-11-24T22:27:05.154Z,1002
2022-11-24T22:30:05.195Z,1002
2022-11-24T22:33:05.248Z,1002
2022-11-24T22:36:05.225Z,1002
2022-11-24T22:39:05.258Z,1002
2022-11-24T22:42:05.227Z,1002
2022-11-24T22:45:05.217Z,1002
2022-11-24T22:48:05.164Z,1002
2022-11-24T22:51:05.226Z,1002
2022-11-24T22:54:05.183Z,1002
2022-11-24T22:57:05.204Z,1002
2022-11-24T23:00:05.635Z,1002
2022-11-24T23:03:05.383Z,1002
2022-11-24T23:06:05.196Z,1003
2022-11-24T23:09:05.191Z,1003
2022-11-24T23:12:05.176Z,1003
2022-11-24T23:15:05.221Z,1002
2022-11-24T23:18:05.150Z,1002
2022-11-24T23:21:05.283Z,1002
2022-11-24T23:24:05.266Z,1002
2022-11-24T23:27:05.261Z,1002
2022-11-24T23:30:05.170Z,1002
2022-11-24T23:33:05.210Z,1002
2022-11-24T23:36:05.193Z,1002
2022-11-24T23:39:05.203Z,1002
2022-11-24T23:42:05.187Z,1002
2022-11-24T23:45:05.219Z,1002
2022-11-24T23:48:05.140Z,1002
2022-11-24T23:51:05.316Z,1002
2022-11-24T23:57:05.195Z,1002
